createdAt,value
2022-12-09T00:00:23.534Z,100016.25
2022-12-09T00:03:26.534Z,100019.94
2022-12-09T00:06:30.403Z,100029.91
2022-12-09T00:09:33.328Z,100025.16
2022-12-09T00:12:36.138Z,100022.06
2022-12-09T00:15:42.596Z,100023.66
2022-12-09T00:18:45.484Z,100014.19
2022-12-09T00:21:48.783Z,100005.22
2022-12-09T00:24:51.885Z,99990.25
2022-12-09T00:27:54.774Z,99989.22
2022-12-09T00:31:01.060Z,99989.44
2022-12-09T00:34:07.322Z,99986.56
2022-12-09T00:37:09.752Z,100000.50
2022-12-09T00:40:13.078Z,99995.25
2022-12-09T00:43:15.564Z,100005.75
2022-12-09T00:46:18.897Z,100002.59
2022-12-09T00:49:22.219Z,100013.88
2022-12-09T00:52:24.919Z,100023.09
2022-12-09T00:55:27.707Z,100013.38
2022-12-09T00:58:31.000Z,100024.91
2022-12-09T01:01:33.656Z,100023.63
2022-12-09T01:04:36.798Z,100033.31
2022-12-09T01:07:39.668Z,100038.84
2022-12-09T01:10:44.786Z,100019.94
2022-12-09T01:13:48.993Z,100018.91
2022-12-09T01:16:51.998Z,100046.47
2022-12-09T01:19:54.659Z,100033.81
2022-12-09T01:22:57.693Z,100027.00
2022-12-09T01:26:04.177Z,100034.63
2022-12-09T01:29:07.407Z,100045.19
2022-12-09T01:32:10.703Z,100027.28
2022-12-09T01:35:15.705Z,100021.25
2022-12-09T01:38:18.589Z,100035.44
2022-12-09T01:41:22.780Z,100028.06
2022-12-09T01:44:26.803Z,100028.84
2022-12-09T01:47:29.798Z,100013.63
2022-12-09T01:50:36.110Z,100011.28
2022-12-09T01:53:43.928Z,100018.63
2022-12-09T01:56:47.808Z,100019.94
2022-12-09T01:59:53.302Z,100029.13
2022-12-09T02:02:57.528Z,100025.16
2022-12-09T02:06:00.911Z,100019.66
2022-12-09T02:09:03.973Z,100012.09
2022-12-09T02:12:18.162Z,100019.44
2022-12-09T02:15:39.499Z,100014.16
2022-12-09T02:18:59.776Z,100026.75
2022-12-09T02:22:02.925Z,100022.53
2022-12-09T02:25:30.853Z,100012.03
2022-12-09T02:29:11.391Z,100018.31
2022-12-09T02:32:28.064Z,100019.13
2022-12-09T02:35:48.636Z,100008.91
2022-12-09T02:38:53.161Z,100011.75
2022-12-09T02:41:58.386Z,100027.00
2022-12-09T02:45:04.542Z,100026.72
2022-12-09T02:48:09.695Z,100023.81
2022-12-09T02:51:20.114Z,100028.03
2022-12-09T02:54:24.756Z,100030.94
2022-12-09T02:57:31.299Z,100040.91
2022-12-09T03:00:34.343Z,100036.44
2022-12-09T03:03:38.151Z,100036.44
2022-12-09T03:06:53.218Z,100034.34
2022-12-09T03:10:09.743Z,100038.00
2022-12-09T03:13:34.517Z,100024.38
2022-12-09T03:16:50.282Z,100028.34
2022-12-09T03:20:06.699Z,100032.53
2022-12-09T03:23:12.658Z,100038.72
2022-12-09T03:26:17.918Z,100042.63
2022-12-09T03:29:25.785Z,100041.84
2022-12-09T03:32:31.788Z,100051.50
2022-12-09T03:35:40.285Z,100061.72
2022-12-09T03:38:45.681Z,100062.47
2022-12-09T03:41:54.281Z,100060.13
2022-12-09T03:45:04.983Z,100041.72
2022-12-09T03:48:09.683Z,100036.19
2022-12-09T03:51:38.326Z,100037.97
2022-12-09T03:54:54.097Z,100038.47
2022-12-09T03:58:00.229Z,100012.22
2022-12-09T04:01:04.103Z,100029.03
2022-12-09T04:04:08.382Z,100026.22
2022-12-09T04:07:11.151Z,100041.84
2022-12-09T04:10:17.029Z,100041.06
2022-12-09T04:13:20.010Z,100040.41
2022-12-09T04:16:23.136Z,100029.63
2022-12-09T04:19:27.013Z,100031.22
2022-12-09T04:22:30.665Z,100027.50
2022-12-09T04:25:39.250Z,100033.28
2022-12-09T04:28:41.991Z,100031.97
2022-12-09T04:31:45.458Z,100021.22
2022-12-09T04:34:49.413Z,100008.09
2022-12-09T04:37:52.321Z,100019.94
2022-12-09T04:40:54.871Z,100021.09
2022-12-09T04:43:57.767Z,100025.50
2022-12-09T04:47:01.270Z,100029.97
2022-12-09T04:50:06.389Z,100037.25
2022-12-09T04:53:09.751Z,100041.13
2022-12-09T04:56:19.388Z,100041.13
2022-12-09T04:59:22.480Z,100048.19
2022-12-09T05:02:26.065Z,100041.34
2022-12-09T05:05:29.249Z,100056.28
2022-12-09T05:08:33.339Z,100057.50
2022-12-09T05:11:36.226Z,100051.38
2022-12-09T05:14:38.980Z,100045.94
2022-12-09T05:17:41.680Z,100024.44
2022-12-09T05:20:45.004Z,100026.25
2022-12-09T05:23:48.558Z,100021.50
2022-12-09T05:26:53.050Z,100030.03
2022-12-09T05:29:56.043Z,100033.03
2022-12-09T05:32:59.156Z,100050.19
2022-12-09T05:36:02.136Z,100054.22
2022-12-09T05:39:06.006Z,100051.59
2022-12-09T05:42:08.813Z,100046.91
2022-12-09T05:45:12.526Z,100060.25
2022-12-09T05:48:15.671Z,100064.13
2022-12-09T05:51:23.861Z,100046.34
2022-12-09T05:54:26.755Z,100039.47
2022-12-09T05:57:30.545Z,100037.09
2022-12-09T06:00:33.567Z,100050.38
2022-12-09T06:03:37.120Z,100051.72
2022-12-09T06:06:40.706Z,100060.38
2022-12-09T06:09:45.148Z,100060.25
2022-12-09T06:12:47.831Z,100056.28
2022-12-09T06:15:51.303Z,100046.28
2022-12-09T06:18:54.533Z,100048.50
2022-12-09T06:21:57.832Z,100048.41
2022-12-09T06:25:00.279Z,100048.66
2022-12-09T06:28:04.693Z,100043.81
2022-12-09T06:31:07.415Z,100050.94
2022-12-09T06:34:11.153Z,100049.41
2022-12-09T06:37:16.562Z,100043.81
2022-12-09T06:40:22.216Z,100049.03
2022-12-09T06:43:25.937Z,100066.03
2022-12-09T06:46:29.450Z,100061.59
2022-12-09T06:49:32.987Z,100057.66
2022-12-09T06:52:37.658Z,100062.19
2022-12-09T06:55:40.418Z,100066.97
2022-12-09T06:58:45.163Z,100062.75
2022-12-09T07:01:47.941Z,100055.56
2022-12-09T07:04:55.759Z,100067.13
2022-12-09T07:07:59.094Z,100066.78
2022-12-09T07:11:02.795Z,100064.50
2022-12-09T07:14:06.217Z,100068.22
2022-12-09T07:17:17.998Z,100055.66
2022-12-09T07:20:21.548Z,100060.56
2022-12-09T07:23:24.839Z,100057.16
2022-12-09T07:26:30.235Z,100041.59
2022-12-09T07:29:34.237Z,100039.22
2022-12-09T07:32:37.137Z,100035.38
2022-12-09T07:35:40.801Z,100033.44
2022-12-09T07:38:43.944Z,100027.41
2022-12-09T07:41:52.613Z,100034.19
2022-12-09T07:44:55.234Z,100030.78
2022-12-09T07:47:58.342Z,100035.22
2022-12-09T07:51:05.557Z,100028.69
2022-12-09T07:54:15.239Z,100030.81
2022-12-09T07:57:18.346Z,100038.44
2022-12-09T08:00:22.029Z,100037.34
2022-12-09T08:03:25.447Z,100028.69
2022-12-09T08:06:30.368Z,100031.56
2022-12-09T08:09:33.832Z,100021.38
2022-12-09T08:12:36.953Z,100021.41
2022-12-09T08:15:40.073Z,100018.09
2022-12-09T08:18:43.836Z,100010.75
2022-12-09T08:21:52.807Z,100014.50
2022-12-09T08:24:57.294Z,100011.06
2022-12-09T08:28:00.424Z,100014.53
2022-12-09T08:31:09.142Z,100016.59
2022-12-09T08:34:13.186Z,100008.25
2022-12-09T08:37:16.400Z,100012.47
2022-12-09T08:40:19.761Z,100007.25
2022-12-09T08:43:22.709Z,100009.31
2022-12-09T08:46:25.840Z,100006.22
2022-12-09T08:49:29.896Z,100011.75
2022-12-09T08:52:38.700Z,100013.03
2022-12-09T08:55:43.681Z,100015.91
2022-12-09T08:58:48.714Z,100017.25
2022-12-09T09:01:52.781Z,100016.97
2022-12-09T09:04:57.575Z,100017.25
2022-12-09T09:08:01.015Z,100013.03
2022-12-09T09:11:10.606Z,100001.25
2022-12-09T09:14:14.968Z,99998.66
2022-12-09T09:17:17.596Z,100002.66
2022-12-09T09:20:20.915Z,100000.78
2022-12-09T09:23:23.560Z,99998.97
2022-12-09T09:26:31.087Z,99995.78
2022-12-09T09:29:34.917Z,99990.81
2022-12-09T09:32:38.110Z,99989.00
2022-12-09T09:35:40.963Z,99983.50
2022-12-09T09:38:44.085Z,99974.81
2022-12-09T09:42:07.817Z,99965.34
2022-12-09T09:45:16.529Z,99953.53
2022-12-09T09:48:24.517Z,99954.81
2022-12-09T09:51:28.655Z,99965.09
2022-12-09T09:54:32.352Z,99959.31
2022-12-09T09:57:38.486Z,99949.06
2022-12-09T10:00:52.517Z,99948.75
2022-12-09T10:04:10.100Z,99941.94
2022-12-09T10:07:25.548Z,99931.16
2022-12-09T10:11:07.269Z,99922.72
2022-12-09T10:14:10.117Z,99919.53
2022-12-09T10:17:32.173Z,99912.16
2022-12-09T10:20:35.084Z,99915.06
2022-12-09T10:23:37.932Z,99903.75
2022-12-09T10:26:41.273Z,99895.34
2022-12-09T10:29:55.062Z,99894.28
2022-12-09T10:32:57.876Z,99889.56
2022-12-09T10:36:00.945Z,99879.03
2022-12-09T10:39:05.290Z,99878.78
2022-12-09T10:42:34.634Z,99876.94
2022-12-09T10:49:20.899Z,99852.41
2022-12-09T10:52:31.784Z,99853.44
2022-12-09T10:55:40.516Z,99846.59
2022-12-09T10:58:43.427Z,99842.06
2022-12-09T11:02:01.845Z,99846.84
2022-12-09T11:05:34.011Z,99841.09
2022-12-09T11:08:40.755Z,99834.75
2022-12-09T11:11:45.699Z,99838.97
2022-12-09T11:14:52.554Z,99841.34
2022-12-09T11:18:27.516Z,99832.06
2022-12-09T11:21:34.457Z,99833.91
2022-12-09T11:24:37.835Z,99828.34
2022-12-09T11:27:48.120Z,99819.59
2022-12-09T11:34:27.617Z,99830.97
2022-12-09T11:37:32.335Z,99819.06
2022-12-09T11:40:35.908Z,99805.63
2022-12-09T11:43:56.558Z,99813.69
2022-12-09T11:47:12.920Z,99808.66
2022-12-09T11:50:20.401Z,99804.47
2022-12-09T11:53:26.367Z,99797.34
2022-12-09T11:56:29.748Z,99784.78
2022-12-09T11:59:40.472Z,99774.00
2022-12-09T12:03:04.653Z,99768.63
2022-12-09T12:06:16.768Z,99764.94
2022-12-09T12:09:25.189Z,99760.63
2022-12-09T12:12:30.841Z,99743.31
2022-12-09T12:15:55.458Z,99733.34
2022-12-09T12:19:40.666Z,99736.00
2022-12-09T12:23:14.331Z,99725.72
2022-12-09T12:26:23.869Z,99724.97
2022-12-09T12:29:34.467Z,99708.03
2022-12-09T12:33:59.939Z,99711.69
2022-12-09T12:36:46.023Z,99718.75
2022-12-09T12:40:07.524Z,99715.94
2022-12-09T12:43:41.249Z,99718.81
2022-12-09T12:47:05.957Z,99726.03
2022-12-09T12:50:14.639Z,99724.53
2022-12-09T12:53:46.374Z,99713.44
2022-12-09T12:57:08.030Z,99695.09
2022-12-09T13:00:22.180Z,99695.88
2022-12-09T13:03:29.772Z,99681.13
2022-12-09T13:06:47.282Z,99689.03
2022-12-09T13:09:56.384Z,99677.19
2022-12-09T13:13:02.048Z,99679.81
2022-12-09T13:16:21.037Z,99684.38
2022-12-09T13:19:48.935Z,99685.16
2022-12-09T13:23:07.613Z,99675.44
2022-12-09T13:26:29.261Z,99679.41
2022-12-09T13:29:42.449Z,99670.19
2022-12-09T13:33:05.538Z,99667.06
2022-12-09T13:36:35.931Z,99654.16
2022-12-09T13:39:42.165Z,99642.31
2022-12-09T13:42:54.026Z,99637.28
2022-12-09T13:46:02.052Z,99633.88
2022-12-09T13:49:18.680Z,99637.00
2022-12-09T13:52:41.150Z,99630.13
2022-12-09T13:56:04.911Z,99634.91
2022-12-09T13:59:29.130Z,99631.41
2022-12-09T14:02:37.706Z,99621.72
2022-12-09T14:05:40.424Z,99628.53
2022-12-09T14:08:50.462Z,99618.88
2022-12-09T14:12:06.492Z,99619.38
2022-12-09T14:15:24.374Z,99607.00
2022-12-09T14:18:33.582Z,99592.56
2022-12-09T14:21:36.291Z,99596.19
2022-12-09T14:24:39.143Z,99580.97
2022-12-09T14:28:10.859Z,99584.91
2022-12-09T14:31:45.429Z,99577.75
2022-12-09T14:34:59.407Z,99577.75
2022-12-09T14:38:14.468Z,99575.63
2022-12-09T14:41:33.823Z,99561.75
2022-12-09T14:44:56.844Z,99563.59
2022-12-09T14:48:00.839Z,99547.59
2022-12-09T14:51:26.661Z,99543.63
2022-12-09T14:54:35.416Z,99537.84
2022-12-09T14:57:43.882Z,99537.28
2022-12-09T15:00:46.662Z,99533.69
2022-12-09T15:04:00.257Z,99549.47
2022-12-09T15:07:25.683Z,99560.47
2022-12-09T15:10:34.436Z,99546.84
2022-12-09T15:13:40.934Z,99530.00
2022-12-09T15:16:47.715Z,99529.84
2022-12-09T15:20:12.159Z,99518.53
2022-12-09T15:23:26.897Z,99504.59
2022-12-09T15:26:34.110Z,99496.75
2022-12-09T15:29:36.969Z,99498.59
2022-12-09T15:32:40.078Z,99494.91
2022-12-09T15:35:49.536Z,99485.94
2022-12-09T15:38:59.107Z,99487.78
2022-12-09T15:42:12.506Z,99487.50
2022-12-09T15:45:23.312Z,99475.94
2022-12-09T15:48:32.192Z,99475.16
2022-12-09T15:51:38.980Z,99470.38
2022-12-09T15:54:44.149Z,99464.63
2022-12-09T15:57:49.974Z,99466.41
2022-12-09T16:00:54.442Z,99471.69
2022-12-09T16:04:00.583Z,99453.75
2022-12-09T16:07:07.627Z,99452.97
2022-12-09T16:10:17.395Z,99445.84
2022-12-09T16:13:21.362Z,99438.19
2022-12-09T16:16:30.224Z,99433.97
2022-12-09T16:19:38.359Z,99436.06
2022-12-09T16:22:41.950Z,99437.91
2022-12-09T16:25:48.070Z,99432.66
2022-12-09T16:29:02.934Z,99431.03
2022-12-09T16:32:25.641Z,99430.50
2022-12-09T16:35:37.701Z,99433.09
2022-12-09T16:38:41.613Z,99423.13
2022-12-09T16:41:50.779Z,99417.88
2022-12-09T16:44:53.491Z,99406.56
2022-12-09T16:47:57.870Z,99412.59
2022-12-09T16:51:12.590Z,99403.16
2022-12-09T16:54:20.458Z,99392.34
2022-12-09T16:57:24.243Z,99391.00
2022-12-09T17:00:27.844Z,99394.13
2022-12-09T17:03:42.916Z,99387.28
2022-12-09T17:06:46.075Z,99384.72
2022-12-09T17:09:48.977Z,99377.63
2022-12-09T17:12:52.028Z,99371.28
2022-12-09T17:15:58.477Z,99373.91
2022-12-09T17:19:01.959Z,99370.44
2022-12-09T17:22:04.564Z,99354.38
2022-12-09T17:25:10.422Z,99361.25
2022-12-09T17:28:13.587Z,99347.03
2022-12-09T17:31:18.771Z,99330.47
2022-12-09T17:34:21.580Z,99321.78
2022-12-09T17:37:24.498Z,99318.16
2022-12-09T17:40:27.700Z,99313.41
2022-12-09T17:43:30.891Z,99309.19
2022-12-09T17:46:34.849Z,99302.94
2022-12-09T17:49:38.046Z,99302.94
2022-12-09T17:52:42.485Z,99293.47
2022-12-09T17:55:46.095Z,99283.75
2022-12-09T17:58:56.308Z,99276.06
2022-12-09T18:01:59.001Z,99272.09
2022-12-09T18:05:01.824Z,99267.03
2022-12-09T18:08:05.826Z,99265.69
2022-12-09T18:11:10.710Z,99264.59
2022-12-09T18:14:14.048Z,99248.81
2022-12-09T18:17:16.721Z,99249.59
2022-12-09T18:20:19.647Z,99234.59
2022-12-09T18:23:22.189Z,99234.59
2022-12-09T18:26:30.211Z,99222.88
2022-12-09T18:29:35.237Z,99233.31
2022-12-09T18:32:38.314Z,99226.56
2022-12-09T18:35:41.503Z,99223.66
2022-12-09T18:38:45.207Z,99214.47
2022-12-09T18:41:51.717Z,99212.63
2022-12-09T18:44:55.758Z,99214.13
2022-12-09T18:47:58.227Z,99213.63
2022-12-09T18:51:01.641Z,99205.75
2022-12-09T18:54:05.435Z,99215.25
2022-12-09T18:57:08.454Z,99193.22
2022-12-09T19:00:13.217Z,99207.38
2022-12-09T19:03:15.976Z,99192.66
2022-12-09T19:06:25.593Z,99193.16
2022-12-09T19:09:33.847Z,99189.06
2022-12-09T19:12:47.166Z,99191.00
2022-12-09T19:15:51.281Z,99188.38
2022-12-09T19:18:54.784Z,99186.53
2022-12-09T19:21:57.849Z,99171.03
2022-12-09T19:25:00.617Z,99176.88
2022-12-09T19:28:04.185Z,99173.47
2022-12-09T19:31:20.282Z,99167.41
2022-12-09T19:34:27.303Z,99176.59
2022-12-09T19:37:30.211Z,99161.00
2022-12-09T19:40:33.007Z,99157.94
2022-12-09T19:43:36.292Z,99164.13
2022-12-09T19:46:39.448Z,99153.13
2022-12-09T19:49:44.397Z,99161.00
2022-12-09T19:52:48.083Z,99143.38
2022-12-09T19:55:51.157Z,99149.50
2022-12-09T19:58:54.673Z,99149.59
2022-12-09T20:01:57.830Z,99139.47
2022-12-09T20:05:00.924Z,99148.53
2022-12-09T20:08:03.899Z,99140.44
2022-12-09T20:11:13.704Z,99136.34
2022-12-09T20:14:16.827Z,99148.72
2022-12-09T20:17:19.838Z,99132.84
2022-12-09T20:20:22.662Z,99148.81
2022-12-09T20:23:25.603Z,99125.44
2022-12-09T20:26:31.263Z,99144.38
2022-12-09T20:29:37.978Z,99140.25
2022-12-09T20:32:43.857Z,99135.28
2022-12-09T20:35:46.955Z,99133.44
2022-12-09T20:38:55.167Z,99127.38
2022-12-09T20:41:59.798Z,99129.44
2022-12-09T20:45:02.852Z,99126.25
2022-12-09T20:48:06.352Z,99111.22
2022-12-09T20:51:13.201Z,99109.66
2022-12-09T20:54:16.473Z,99108.31
2022-12-09T20:57:19.179Z,99118.63
2022-12-09T21:00:22.177Z,99104.41
2022-12-09T21:03:26.001Z,99109.88
2022-12-09T21:06:32.082Z,99100.13
2022-12-09T21:09:35.171Z,99094.84
2022-12-09T21:12:38.151Z,99092.69
2022-12-09T21:15:41.108Z,99091.31
2022-12-09T21:18:44.346Z,99091.53
2022-12-09T21:21:47.121Z,99081.59
2022-12-09T21:24:49.863Z,99060.84
2022-12-09T21:27:52.658Z,99053.88
2022-12-09T21:30:55.838Z,99044.81
2022-12-09T21:34:01.936Z,99054.09
2022-12-09T21:37:04.779Z,99044.63
2022-12-09T21:40:08.135Z,99036.63
2022-12-09T21:43:11.365Z,99030.00
2022-12-09T21:46:19.812Z,99021.81
2022-12-09T21:49:23.061Z,99023.38
2022-12-09T21:52:25.518Z,99034.06
2022-12-09T21:55:28.752Z,99035.75
2022-12-09T21:58:32.734Z,99029.22
2022-12-09T22:01:41.788Z,99033.72
2022-12-09T22:04:44.611Z,99030.59
2022-12-09T22:07:50.286Z,99036.66
2022-12-09T22:10:53.767Z,99025.22
2022-12-09T22:13:58.989Z,99019.94
2022-12-09T22:17:01.886Z,98997.94
2022-12-09T22:20:48.830Z,99018.25
2022-12-09T22:23:30.483Z,99015.31
2022-12-09T22:26:33.591Z,99008.09
2022-12-09T22:29:36.133Z,98998.16
2022-12-09T22:32:42.043Z,98982.06
2022-12-09T22:35:46.059Z,98997.84
2022-12-09T22:38:49.544Z,98999.88
2022-12-09T22:41:52.493Z,98995.88
2022-12-09T22:44:55.423Z,98967.28
2022-12-09T22:47:58.072Z,98960.34
2022-12-09T22:51:16.231Z,98961.78
2022-12-09T22:54:18.791Z,98955.28
2022-12-09T22:57:21.691Z,98958.41
2022-12-09T23:00:24.517Z,98957.16
2022-12-09T23:03:27.630Z,98944.13
2022-12-09T23:06:31.387Z,98951.09
2022-12-09T23:09:34.049Z,98935.69
2022-12-09T23:12:36.577Z,98934.47
2022-12-09T23:15:39.598Z,98941.31
2022-12-09T23:18:42.791Z,98935.09
2022-12-09T23:21:45.900Z,98930.91
2022-12-09T23:24:48.804Z,98933.84
2022-12-09T23:27:51.880Z,98944.72
2022-12-09T23:30:54.446Z,98941.28
2022-12-09T23:33:58.346Z,98944.56
2022-12-09T23:37:01.163Z,98935.88
2022-12-09T23:40:04.773Z,98934.63
2022-12-09T23:43:07.801Z,98931.34
2022-12-09T23:46:16.004Z,98923.56
2022-12-09T23:49:19.339Z,98917.66
2022-12-09T23:52:22.243Z,98924.81
2022-12-09T23:55:24.632Z,98921.22
2022-12-09T23:58:27.456Z,98915.91
